sensor_id;sensor_type;location;lat;lon;timestamp;P1;durP1;ratioP1;P2;durP2;ratioP2
55913;SDS011;58179;48.776;9.124;2022-08-21T00:00:36;4.10;;;2.00;;
55913;SDS011;58179;48.776;9.124;2022-08-21T00:03:04;6.43;;;2.10;;
55913;SDS011;58179;48.776;9.124;2022-08-21T00:05:35;7.55;;;2.40;;
55913;SDS011;58179;48.776;9.124;2022-08-21T00:08:05;5.80;;;2.35;;
55913;SDS011;58179;48.776;9.124;2022-08-21T00:10:32;5.47;;;1.80;;
55913;SDS011;58179;48.776;9.124;2022-08-21T00:12:59;4.22;;;2.00;;
55913;SDS011;58179;48.776;9.124;2022-08-21T00:15:27;4.50;;;2.08;;
55913;SDS011;58179;48.776;9.124;2022-08-21T00:17:55;7.28;;;2.15;;
55913;SDS011;58179;48.776;9.124;2022-08-21T00:20:23;4.05;;;1.85;;
55913;SDS011;58179;48.776;9.124;2022-08-21T00:22:51;6.27;;;2.30;;
55913;SDS011;58179;48.776;9.124;2022-08-21T00:25:17;4.32;;;1.95;;
55913;SDS011;58179;48.776;9.124;2022-08-21T00:27:44;5.30;;;2.03;;
55913;SDS011;58179;48.776;9.124;2022-08-21T00:30:12;4.82;;;2.20;;
55913;SDS011;58179;48.776;9.124;2022-08-21T00:32:41;4.07;;;1.80;;
55913;SDS011;58179;48.776;9.124;2022-08-21T00:35:10;5.72;;;2.08;;
55913;SDS011;58179;48.776;9.124;2022-08-21T00:37:38;4.83;;;1.90;;
55913;SDS011;58179;48.776;9.124;2022-08-21T00:40:09;5.35;;;2.10;;
55913;SDS011;58179;48.776;9.124;2022-08-21T00:42:39;6.45;;;2.22;;
55913;SDS011;58179;48.776;9.124;2022-08-21T00:45:07;5.03;;;2.10;;
55913;SDS011;58179;48.776;9.124;2022-08-21T00:47:34;5.57;;;2.17;;
55913;SDS011;58179;48.776;9.124;2022-08-21T00:50:01;5.18;;;2.28;;
55913;SDS011;58179;48.776;9.124;2022-08-21T00:52:28;5.38;;;2.53;;
55913;SDS011;58179;48.776;9.124;2022-08-21T00:54:57;4.33;;;2.27;;
55913;SDS011;58179;48.776;9.124;2022-08-21T00:57:27;7.97;;;2.40;;
55913;SDS011;58179;48.776;9.124;2022-08-21T00:59:59;3.97;;;2.05;;
55913;SDS011;58179;48.776;9.124;2022-08-21T01:02:29;4.00;;;2.07;;
55913;SDS011;58179;48.776;9.124;2022-08-21T01:04:55;4.88;;;2.13;;
55913;SDS011;58179;48.776;9.124;2022-08-21T01:07:22;4.22;;;2.08;;
55913;SDS011;58179;48.776;9.124;2022-08-21T01:09:48;3.63;;;1.90;;
55913;SDS011;58179;48.776;9.124;2022-08-21T01:12:14;5.50;;;2.30;;
55913;SDS011;58179;48.776;9.124;2022-08-21T01:14:42;5.82;;;2.35;;
55913;SDS011;58179;48.776;9.124;2022-08-21T01:17:09;7.33;;;2.33;;
55913;SDS011;58179;48.776;9.124;2022-08-21T01:19:38;5.97;;;2.50;;
55913;SDS011;58179;48.776;9.124;2022-08-21T01:22:06;6.45;;;2.53;;
55913;SDS011;58179;48.776;9.124;2022-08-21T01:24:32;7.35;;;2.47;;
55913;SDS011;58179;48.776;9.124;2022-08-21T01:26:59;4.28;;;2.13;;
55913;SDS011;58179;48.776;9.124;2022-08-21T01:29:28;5.68;;;2.33;;
55913;SDS011;58179;48.776;9.124;2022-08-21T01:31:59;4.80;;;2.07;;
55913;SDS011;58179;48.776;9.124;2022-08-21T01:34:32;7.22;;;2.25;;
55913;SDS011;58179;48.776;9.124;2022-08-21T01:36:59;5.47;;;2.40;;
55913;SDS011;58179;48.776;9.124;2022-08-21T01:39:26;5.35;;;2.53;;
55913;SDS011;58179;48.776;9.124;2022-08-21T01:41:52;5.85;;;2.10;;
55913;SDS011;58179;48.776;9.124;2022-08-21T01:44:19;5.90;;;2.13;;
55913;SDS011;58179;48.776;9.124;2022-08-21T01:46:46;5.82;;;2.40;;
55913;SDS011;58179;48.776;9.124;2022-08-21T01:49:13;5.93;;;2.23;;
55913;SDS011;58179;48.776;9.124;2022-08-21T01:51:39;4.95;;;2.05;;
55913;SDS011;58179;48.776;9.124;2022-08-21T01:54:05;6.55;;;2.45;;
55913;SDS011;58179;48.776;9.124;2022-08-21T01:56:36;4.72;;;2.20;;
55913;SDS011;58179;48.776;9.124;2022-08-21T01:59:04;6.22;;;2.30;;
55913;SDS011;58179;48.776;9.124;2022-08-21T02:01:30;4.13;;;2.22;;
55913;SDS011;58179;48.776;9.124;2022-08-21T02:03:56;5.63;;;2.60;;
55913;SDS011;58179;48.776;9.124;2022-08-21T02:06:24;4.57;;;2.60;;
55913;SDS011;58179;48.776;9.124;2022-08-21T02:08:51;4.82;;;2.40;;
55913;SDS011;58179;48.776;9.124;2022-08-21T02:11:17;5.22;;;2.35;;
55913;SDS011;58179;48.776;9.124;2022-08-21T02:13:45;4.72;;;2.35;;
55913;SDS011;58179;48.776;9.124;2022-08-21T02:16:11;6.05;;;2.30;;
55913;SDS011;58179;48.776;9.124;2022-08-21T02:18:37;3.97;;;2.30;;
55913;SDS011;58179;48.776;9.124;2022-08-21T02:21:04;3.70;;;2.20;;
55913;SDS011;58179;48.776;9.124;2022-08-21T02:23:31;4.10;;;2.07;;
55913;SDS011;58179;48.776;9.124;2022-08-21T02:25:57;5.15;;;2.30;;
55913;SDS011;58179;48.776;9.124;2022-08-21T02:28:25;5.63;;;2.70;;
55913;SDS011;58179;48.776;9.124;2022-08-21T02:30:53;4.40;;;2.13;;
55913;SDS011;58179;48.776;9.124;2022-08-21T02:33:21;5.75;;;2.50;;
55913;SDS011;58179;48.776;9.124;2022-08-21T02:35:48;6.03;;;2.53;;
55913;SDS011;58179;48.776;9.124;2022-08-21T02:38:14;6.13;;;2.97;;
55913;SDS011;58179;48.776;9.124;2022-08-21T02:40:44;5.00;;;2.38;;
55913;SDS011;58179;48.776;9.124;2022-08-21T02:43:13;6.32;;;2.20;;
55913;SDS011;58179;48.776;9.124;2022-08-21T02:45:40;8.33;;;3.00;;
55913;SDS011;58179;48.776;9.124;2022-08-21T02:48:10;5.53;;;2.55;;
55913;SDS011;58179;48.776;9.124;2022-08-21T02:50:39;6.68;;;2.75;;
55913;SDS011;58179;48.776;9.124;2022-08-21T02:53:09;5.60;;;2.50;;
55913;SDS011;58179;48.776;9.124;2022-08-21T02:55:39;5.50;;;2.43;;
55913;SDS011;58179;48.776;9.124;2022-08-21T02:58:06;6.05;;;2.25;;
55913;SDS011;58179;48.776;9.124;2022-08-21T03:00:34;6.60;;;2.60;;
55913;SDS011;58179;48.776;9.124;2022-08-21T03:03:02;6.15;;;2.53;;
55913;SDS011;58179;48.776;9.124;2022-08-21T03:05:31;5.25;;;2.75;;
55913;SDS011;58179;48.776;9.124;2022-08-21T03:08:03;5.95;;;2.70;;
55913;SDS011;58179;48.776;9.124;2022-08-21T03:10:35;7.50;;;2.63;;
55913;SDS011;58179;48.776;9.124;2022-08-21T03:13:01;5.45;;;2.80;;
55913;SDS011;58179;48.776;9.124;2022-08-21T03:15:28;6.72;;;2.80;;
55913;SDS011;58179;48.776;9.124;2022-08-21T03:17:55;7.45;;;2.58;;
55913;SDS011;58179;48.776;9.124;2022-08-21T03:20:22;5.30;;;2.50;;
55913;SDS011;58179;48.776;9.124;2022-08-21T03:22:53;17.92;;;3.22;;
55913;SDS011;58179;48.776;9.124;2022-08-21T03:25:20;6.83;;;2.67;;
55913;SDS011;58179;48.776;9.124;2022-08-21T03:27:47;6.72;;;2.75;;
55913;SDS011;58179;48.776;9.124;2022-08-21T03:30:17;5.18;;;2.78;;
55913;SDS011;58179;48.776;9.124;2022-08-21T03:32:45;8.90;;;3.55;;
55913;SDS011;58179;48.776;9.124;2022-08-21T03:35:11;6.75;;;2.88;;
55913;SDS011;58179;48.776;9.124;2022-08-21T03:37:38;6.78;;;2.90;;
55913;SDS011;58179;48.776;9.124;2022-08-21T03:40:06;7.30;;;3.00;;
55913;SDS011;58179;48.776;9.124;2022-08-21T03:42:34;6.70;;;2.67;;
55913;SDS011;58179;48.776;9.124;2022-08-21T03:45:00;6.05;;;2.85;;
55913;SDS011;58179;48.776;9.124;2022-08-21T03:47:27;6.00;;;2.97;;
55913;SDS011;58179;48.776;9.124;2022-08-21T03:49:53;4.70;;;2.85;;
55913;SDS011;58179;48.776;9.124;2022-08-21T03:52:19;5.30;;;2.77;;
55913;SDS011;58179;48.776;9.124;2022-08-21T03:54:45;5.60;;;3.13;;
55913;SDS011;58179;48.776;9.124;2022-08-21T03:57:12;7.75;;;3.20;;
55913;SDS011;58179;48.776;9.124;2022-08-21T03:59:39;5.40;;;2.80;;
55913;SDS011;58179;48.776;9.124;2022-08-21T04:02:05;8.23;;;3.13;;
55913;SDS011;58179;48.776;9.124;2022-08-21T04:04:32;6.80;;;3.17;;
55913;SDS011;58179;48.776;9.124;2022-08-21T04:06:59;7.45;;;2.88;;
55913;SDS011;58179;48.776;9.124;2022-08-21T04:09:25;6.60;;;3.22;;
55913;SDS011;58179;48.776;9.124;2022-08-21T04:11:52;8.10;;;3.13;;
55913;SDS011;58179;48.776;9.124;2022-08-21T04:14:20;8.18;;;3.45;;
55913;SDS011;58179;48.776;9.124;2022-08-21T04:16:46;6.45;;;2.97;;
55913;SDS011;58179;48.776;9.124;2022-08-21T04:19:12;7.35;;;3.33;;
55913;SDS011;58179;48.776;9.124;2022-08-21T04:21:39;5.22;;;2.80;;
55913;SDS011;58179;48.776;9.124;2022-08-21T04:24:06;7.00;;;3.35;;
55913;SDS011;58179;48.776;9.124;2022-08-21T04:26:33;9.18;;;3.42;;
55913;SDS011;58179;48.776;9.124;2022-08-21T04:28:59;6.95;;;3.00;;
55913;SDS011;58179;48.776;9.124;2022-08-21T04:31:27;7.72;;;3.47;;
55913;SDS011;58179;48.776;9.124;2022-08-21T04:33:56;6.10;;;3.10;;
55913;SDS011;58179;48.776;9.124;2022-08-21T04:36:22;8.45;;;3.10;;
55913;SDS011;58179;48.776;9.124;2022-08-21T04:38:48;7.57;;;3.38;;
55913;SDS011;58179;48.776;9.124;2022-08-21T04:41:14;6.00;;;2.85;;
55913;SDS011;58179;48.776;9.124;2022-08-21T04:43:40;7.45;;;3.22;;
55913;SDS011;58179;48.776;9.124;2022-08-21T04:46:07;6.85;;;3.13;;
55913;SDS011;58179;48.776;9.124;2022-08-21T04:48:35;9.17;;;3.20;;
55913;SDS011;58179;48.776;9.124;2022-08-21T04:51:01;10.10;;;3.60;;
55913;SDS011;58179;48.776;9.124;2022-08-21T04:53:33;6.80;;;3.30;;
55913;SDS011;58179;48.776;9.124;2022-08-21T04:56:04;7.53;;;3.30;;
55913;SDS011;58179;48.776;9.124;2022-08-21T04:58:35;7.32;;;3.03;;
55913;SDS011;58179;48.776;9.124;2022-08-21T05:01:02;6.03;;;2.90;;
55913;SDS011;58179;48.776;9.124;2022-08-21T05:03:32;5.55;;;2.90;;
55913;SDS011;58179;48.776;9.124;2022-08-21T05:06:01;7.72;;;3.28;;
55913;SDS011;58179;48.776;9.124;2022-08-21T05:08:31;9.43;;;3.13;;
55913;SDS011;58179;48.776;9.124;2022-08-21T05:10:57;4.78;;;2.92;;
55913;SDS011;58179;48.776;9.124;2022-08-21T05:13:23;7.47;;;3.20;;
55913;SDS011;58179;48.776;9.124;2022-08-21T05:15:49;6.47;;;3.20;;
55913;SDS011;58179;48.776;9.124;2022-08-21T05:18:15;4.90;;;3.00;;
55913;SDS011;58179;48.776;9.124;2022-08-21T05:20:42;6.82;;;3.45;;
55913;SDS011;58179;48.776;9.124;2022-08-21T05:23:10;7.15;;;3.13;;
55913;SDS011;58179;48.776;9.124;2022-08-21T05:25:38;5.70;;;2.83;;
55913;SDS011;58179;48.776;9.124;2022-08-21T05:28:04;5.90;;;3.47;;
55913;SDS011;58179;48.776;9.124;2022-08-21T05:30:31;5.88;;;3.10;;
55913;SDS011;58179;48.776;9.124;2022-08-21T05:32:58;7.88;;;3.05;;
55913;SDS011;58179;48.776;9.124;2022-08-21T05:35:26;6.82;;;3.38;;
55913;SDS011;58179;48.776;9.124;2022-08-21T05:37:54;7.40;;;3.33;;
55913;SDS011;58179;48.776;9.124;2022-08-21T05:40:21;5.85;;;2.90;;
55913;SDS011;58179;48.776;9.124;2022-08-21T05:42:47;6.88;;;3.10;;
55913;SDS011;58179;48.776;9.124;2022-08-21T05:45:13;12.67;;;3.23;;
55913;SDS011;58179;48.776;9.124;2022-08-21T05:47:39;5.28;;;2.85;;
55913;SDS011;58179;48.776;9.124;2022-08-21T05:50:05;5.70;;;2.92;;
55913;SDS011;58179;48.776;9.124;2022-08-21T05:52:32;7.03;;;3.20;;
55913;SDS011;58179;48.776;9.124;2022-08-21T05:54:59;5.93;;;2.60;;
55913;SDS011;58179;48.776;9.124;2022-08-21T05:57:25;5.95;;;2.92;;
55913;SDS011;58179;48.776;9.124;2022-08-21T05:59:52;5.40;;;2.77;;
55913;SDS011;58179;48.776;9.124;2022-08-21T06:02:19;4.80;;;2.83;;
55913;SDS011;58179;48.776;9.124;2022-08-21T06:04:46;6.30;;;2.75;;
55913;SDS011;58179;48.776;9.124;2022-08-21T06:07:12;4.32;;;2.40;;
55913;SDS011;58179;48.776;9.124;2022-08-21T06:09:38;6.00;;;2.85;;
55913;SDS011;58179;48.776;9.124;2022-08-21T06:12:06;7.63;;;2.92;;
55913;SDS011;58179;48.776;9.124;2022-08-21T06:14:37;5.53;;;2.65;;
55913;SDS011;58179;48.776;9.124;2022-08-21T06:17:06;6.13;;;3.07;;
55913;SDS011;58179;48.776;9.124;2022-08-21T06:19:37;5.97;;;3.00;;
55913;SDS011;58179;48.776;9.124;2022-08-21T06:22:03;6.70;;;2.90;;
55913;SDS011;58179;48.776;9.124;2022-08-21T06:24:29;6.05;;;3.20;;
55913;SDS011;58179;48.776;9.124;2022-08-21T06:26:56;5.20;;;2.83;;
55913;SDS011;58179;48.776;9.124;2022-08-21T06:29:23;4.70;;;2.88;;
55913;SDS011;58179;48.776;9.124;2022-08-21T06:31:50;6.07;;;3.20;;
55913;SDS011;58179;48.776;9.124;2022-08-21T06:34:16;7.57;;;3.47;;
55913;SDS011;58179;48.776;9.124;2022-08-21T06:36:43;7.88;;;3.33;;
55913;SDS011;58179;48.776;9.124;2022-08-21T06:39:09;7.43;;;3.42;;
55913;SDS011;58179;48.776;9.124;2022-08-21T06:41:35;7.78;;;3.55;;
55913;SDS011;58179;48.776;9.124;2022-08-21T06:44:01;7.70;;;3.30;;
55913;SDS011;58179;48.776;9.124;2022-08-21T06:46:29;14.30;;;4.32;;
55913;SDS011;58179;48.776;9.124;2022-08-21T06:48:56;11.75;;;3.80;;
55913;SDS011;58179;48.776;9.124;2022-08-21T06:51:22;7.05;;;3.67;;
55913;SDS011;58179;48.776;9.124;2022-08-21T06:53:50;11.63;;;3.83;;
55913;SDS011;58179;48.776;9.124;2022-08-21T06:56:17;10.90;;;3.80;;
55913;SDS011;58179;48.776;9.124;2022-08-21T06:58:43;10.30;;;3.90;;
55913;SDS011;58179;48.776;9.124;2022-08-21T07:01:09;11.32;;;3.78;;
55913;SDS011;58179;48.776;9.124;2022-08-21T07:03:39;6.32;;;3.40;;
55913;SDS011;58179;48.776;9.124;2022-08-21T07:06:07;9.17;;;3.93;;
55913;SDS011;58179;48.776;9.124;2022-08-21T07:08:35;10.43;;;3.63;;
55913;SDS011;58179;48.776;9.124;2022-08-21T07:11:04;11.70;;;4.35;;
55913;SDS011;58179;48.776;9.124;2022-08-21T07:13:37;8.52;;;3.70;;
55913;SDS011;58179;48.776;9.124;2022-08-21T07:16:04;11.25;;;4.00;;
55913;SDS011;58179;48.776;9.124;2022-08-21T07:18:30;12.27;;;3.90;;
55913;SDS011;58179;48.776;9.124;2022-08-21T07:20:58;11.18;;;3.97;;
55913;SDS011;58179;48.776;9.124;2022-08-21T07:23:28;11.93;;;4.03;;
55913;SDS011;58179;48.776;9.124;2022-08-21T07:25:56;15.45;;;4.10;;
55913;SDS011;58179;48.776;9.124;2022-08-21T07:28:24;12.43;;;4.20;;
55913;SDS011;58179;48.776;9.124;2022-08-21T07:30:50;9.82;;;3.30;;
55913;SDS011;58179;48.776;9.124;2022-08-21T07:33:20;9.27;;;3.80;;
55913;SDS011;58179;48.776;9.124;2022-08-21T07:35:47;12.02;;;3.88;;
55913;SDS011;58179;48.776;9.124;2022-08-21T07:38:14;11.93;;;4.20;;
55913;SDS011;58179;48.776;9.124;2022-08-21T07:40:40;9.85;;;3.60;;
55913;SDS011;58179;48.776;9.124;2022-08-21T07:43:06;11.57;;;3.85;;
55913;SDS011;58179;48.776;9.124;2022-08-21T07:45:32;10.47;;;4.07;;
55913;SDS011;58179;48.776;9.124;2022-08-21T07:47:58;9.93;;;4.05;;
55913;SDS011;58179;48.776;9.124;2022-08-21T07:50:24;11.52;;;3.97;;
55913;SDS011;58179;48.776;9.124;2022-08-21T07:52:50;8.10;;;3.50;;
55913;SDS011;58179;48.776;9.124;2022-08-21T07:55:19;9.85;;;3.72;;
55913;SDS011;58179;48.776;9.124;2022-08-21T07:57:47;8.43;;;3.05;;
55913;SDS011;58179;48.776;9.124;2022-08-21T08:00:14;10.73;;;3.78;;
55913;SDS011;58179;48.776;9.124;2022-08-21T08:02:43;8.18;;;3.72;;
55913;SDS011;58179;48.776;9.124;2022-08-21T08:05:14;5.88;;;3.10;;
55913;SDS011;58179;48.776;9.124;2022-08-21T08:07:42;9.48;;;3.30;;
55913;SDS011;58179;48.776;9.124;2022-08-21T08:10:08;7.53;;;3.35;;
55913;SDS011;58179;48.776;9.124;2022-08-21T08:12:37;9.48;;;3.70;;
55913;SDS011;58179;48.776;9.124;2022-08-21T08:15:06;11.07;;;3.92;;
55913;SDS011;58179;48.776;9.124;2022-08-21T08:17:37;8.23;;;3.80;;
55913;SDS011;58179;48.776;9.124;2022-08-21T08:20:03;7.85;;;3.58;;
55913;SDS011;58179;48.776;9.124;2022-08-21T08:22:31;8.25;;;3.50;;
55913;SDS011;58179;48.776;9.124;2022-08-21T08:24:58;8.07;;;3.38;;
55913;SDS011;58179;48.776;9.124;2022-08-21T08:27:25;8.27;;;3.63;;
55913;SDS011;58179;48.776;9.124;2022-08-21T08:29:53;8.00;;;3.30;;
55913;SDS011;58179;48.776;9.124;2022-08-21T08:32:19;9.45;;;3.85;;
55913;SDS011;58179;48.776;9.124;2022-08-21T08:34:45;8.60;;;3.50;;
55913;SDS011;58179;48.776;9.124;2022-08-21T08:37:13;10.55;;;3.60;;
55913;SDS011;58179;48.776;9.124;2022-08-21T08:39:40;12.02;;;3.83;;
55913;SDS011;58179;48.776;9.124;2022-08-21T08:42:07;9.88;;;3.85;;
55913;SDS011;58179;48.776;9.124;2022-08-21T08:44:38;8.73;;;3.85;;
55913;SDS011;58179;48.776;9.124;2022-08-21T08:47:07;8.13;;;3.22;;
55913;SDS011;58179;48.776;9.124;2022-08-21T08:49:36;8.65;;;3.58;;
55913;SDS011;58179;48.776;9.124;2022-08-21T08:52:09;8.20;;;3.40;;
55913;SDS011;58179;48.776;9.124;2022-08-21T08:54:44;7.65;;;3.45;;
55913;SDS011;58179;48.776;9.124;2022-08-21T08:57:17;10.57;;;3.50;;
55913;SDS011;58179;48.776;9.124;2022-08-21T08:59:48;9.73;;;3.55;;
55913;SDS011;58179;48.776;9.124;2022-08-21T09:02:18;11.45;;;4.10;;
55913;SDS011;58179;48.776;9.124;2022-08-21T09:04:46;10.77;;;3.78;;
55913;SDS011;58179;48.776;9.124;2022-08-21T09:07:16;5.85;;;3.20;;
55913;SDS011;58179;48.776;9.124;2022-08-21T09:10:03;10.75;;;3.42;;
55913;SDS011;58179;48.776;9.124;2022-08-21T09:12:38;8.50;;;4.00;;
55913;SDS011;58179;48.776;9.124;2022-08-21T09:15:16;7.60;;;3.38;;
55913;SDS011;58179;48.776;9.124;2022-08-21T09:17:56;12.10;;;3.97;;
55913;SDS011;58179;48.776;9.124;2022-08-21T09:20:44;9.65;;;3.45;;
55913;SDS011;58179;48.776;9.124;2022-08-21T09:23:23;8.88;;;3.80;;
55913;SDS011;58179;48.776;9.124;2022-08-21T09:25:59;9.35;;;3.35;;
55913;SDS011;58179;48.776;9.124;2022-08-21T09:28:32;9.27;;;3.27;;
55913;SDS011;58179;48.776;9.124;2022-08-21T09:30:59;7.03;;;3.22;;
55913;SDS011;58179;48.776;9.124;2022-08-21T09:33:29;5.93;;;3.05;;
55913;SDS011;58179;48.776;9.124;2022-08-21T09:35:55;10.13;;;3.60;;
55913;SDS011;58179;48.776;9.124;2022-08-21T09:38:25;7.88;;;3.60;;
55913;SDS011;58179;48.776;9.124;2022-08-21T09:40:57;7.60;;;3.30;;
55913;SDS011;58179;48.776;9.124;2022-08-21T09:43:29;7.93;;;3.60;;
55913;SDS011;58179;48.776;9.124;2022-08-21T09:46:07;13.15;;;4.18;;
55913;SDS011;58179;48.776;9.124;2022-08-21T09:48:41;9.03;;;3.47;;
55913;SDS011;58179;48.776;9.124;2022-08-21T09:51:11;10.57;;;3.85;;
55913;SDS011;58179;48.776;9.124;2022-08-21T09:53:43;9.27;;;3.60;;
55913;SDS011;58179;48.776;9.124;2022-08-21T09:56:17;7.47;;;3.25;;
55913;SDS011;58179;48.776;9.124;2022-08-21T09:59:13;13.10;;;4.20;;
55913;SDS011;58179;48.776;9.124;2022-08-21T10:01:47;10.43;;;3.60;;
55913;SDS011;58179;48.776;9.124;2022-08-21T10:04:20;9.98;;;4.18;;
55913;SDS011;58179;48.776;9.124;2022-08-21T10:06:49;10.57;;;4.10;;
55913;SDS011;58179;48.776;9.124;2022-08-21T10:09:16;12.82;;;4.10;;
55913;SDS011;58179;48.776;9.124;2022-08-21T10:11:49;9.65;;;3.85;;
55913;SDS011;58179;48.776;9.124;2022-08-21T10:14:33;8.77;;;3.50;;
55913;SDS011;58179;48.776;9.124;2022-08-21T10:17:14;8.32;;;3.63;;
55913;SDS011;58179;48.776;9.124;2022-08-21T10:19:51;9.35;;;4.20;;
55913;SDS011;58179;48.776;9.124;2022-08-21T10:22:30;7.73;;;3.40;;
55913;SDS011;58179;48.776;9.124;2022-08-21T10:25:07;12.82;;;4.55;;
55913;SDS011;58179;48.776;9.124;2022-08-21T10:27:44;12.03;;;3.87;;
55913;SDS011;58179;48.776;9.124;2022-08-21T10:30:26;15.30;;;4.13;;
55913;SDS011;58179;48.776;9.124;2022-08-21T10:36:04;10.23;;;3.80;;
55913;SDS011;58179;48.776;9.124;2022-08-21T10:38:55;9.67;;;3.63;;
55913;SDS011;58179;48.776;9.124;2022-08-21T10:41:32;8.75;;;3.47;;
55913;SDS011;58179;48.776;9.124;2022-08-21T10:44:21;9.45;;;4.18;;
55913;SDS011;58179;48.776;9.124;2022-08-21T10:46:57;8.25;;;3.75;;
55913;SDS011;58179;48.776;9.124;2022-08-21T10:49:32;7.55;;;3.33;;
55913;SDS011;58179;48.776;9.124;2022-08-21T10:52:15;13.13;;;4.27;;
55913;SDS011;58179;48.776;9.124;2022-08-21T10:55:02;13.13;;;3.47;;
55913;SDS011;58179;48.776;9.124;2022-08-21T10:57:36;9.88;;;3.40;;
55913;SDS011;58179;48.776;9.124;2022-08-21T11:00:08;9.40;;;4.00;;
55913;SDS011;58179;48.776;9.124;2022-08-21T11:02:40;12.98;;;3.88;;
55913;SDS011;58179;48.776;9.124;2022-08-21T11:05:14;10.88;;;3.95;;
55913;SDS011;58179;48.776;9.124;2022-08-21T11:07:47;10.70;;;4.00;;
55913;SDS011;58179;48.776;9.124;2022-08-21T11:10:20;12.18;;;3.92;;
55913;SDS011;58179;48.776;9.124;2022-08-21T11:12:52;9.45;;;3.80;;
55913;SDS011;58179;48.776;9.124;2022-08-21T11:15:28;9.98;;;3.60;;
55913;SDS011;58179;48.776;9.124;2022-08-21T11:18:10;10.03;;;3.77;;
55913;SDS011;58179;48.776;9.124;2022-08-21T11:20:49;6.32;;;3.05;;
55913;SDS011;58179;48.776;9.124;2022-08-21T11:23:25;5.80;;;3.30;;
55913;SDS011;58179;48.776;9.124;2022-08-21T11:26:00;7.43;;;3.17;;
55913;SDS011;58179;48.776;9.124;2022-08-21T11:28:35;9.80;;;3.63;;
55913;SDS011;58179;48.776;9.124;2022-08-21T11:31:11;5.45;;;2.80;;
55913;SDS011;58179;48.776;9.124;2022-08-21T11:34:00;5.65;;;2.80;;
55913;SDS011;58179;48.776;9.124;2022-08-21T11:36:41;7.20;;;3.13;;
55913;SDS011;58179;48.776;9.124;2022-08-21T11:39:20;5.78;;;3.03;;
55913;SDS011;58179;48.776;9.124;2022-08-21T11:41:58;9.37;;;3.90;;
55913;SDS011;58179;48.776;9.124;2022-08-21T11:44:40;5.20;;;2.90;;
55913;SDS011;58179;48.776;9.124;2022-08-21T11:47:19;8.13;;;3.53;;
55913;SDS011;58179;48.776;9.124;2022-08-21T11:49:57;13.15;;;4.07;;
55913;SDS011;58179;48.776;9.124;2022-08-21T11:52:39;9.77;;;3.70;;
55913;SDS011;58179;48.776;9.124;2022-08-21T11:55:12;11.02;;;3.97;;
55913;SDS011;58179;48.776;9.124;2022-08-21T11:57:45;10.57;;;3.67;;
55913;SDS011;58179;48.776;9.124;2022-08-21T12:00:19;7.45;;;3.30;;
55913;SDS011;58179;48.776;9.124;2022-08-21T12:02:50;10.68;;;3.53;;
55913;SDS011;58179;48.776;9.124;2022-08-21T12:05:24;7.50;;;3.03;;
55913;SDS011;58179;48.776;9.124;2022-08-21T12:08:05;6.47;;;3.47;;
55913;SDS011;58179;48.776;9.124;2022-08-21T12:10:40;7.43;;;3.20;;
55913;SDS011;58179;48.776;9.124;2022-08-21T12:13:22;6.43;;;3.22;;
55913;SDS011;58179;48.776;9.124;2022-08-21T12:15:52;7.55;;;3.10;;
55913;SDS011;58179;48.776;9.124;2022-08-21T12:18:30;6.72;;;2.95;;
55913;SDS011;58179;48.776;9.124;2022-08-21T12:20:58;9.55;;;3.60;;
55913;SDS011;58179;48.776;9.124;2022-08-21T12:23:30;7.57;;;3.30;;
55913;SDS011;58179;48.776;9.124;2022-08-21T12:26:09;7.43;;;3.30;;
55913;SDS011;58179;48.776;9.124;2022-08-21T12:28:46;8.00;;;3.40;;
55913;SDS011;58179;48.776;9.124;2022-08-21T12:31:23;10.98;;;3.60;;
55913;SDS011;58179;48.776;9.124;2022-08-21T12:33:53;6.80;;;3.38;;
55913;SDS011;58179;48.776;9.124;2022-08-21T12:36:39;7.63;;;3.50;;
55913;SDS011;58179;48.776;9.124;2022-08-21T12:39:11;5.57;;;3.17;;
55913;SDS011;58179;48.776;9.124;2022-08-21T12:41:45;9.50;;;3.50;;
55913;SDS011;58179;48.776;9.124;2022-08-21T12:44:15;6.73;;;3.60;;
55913;SDS011;58179;48.776;9.124;2022-08-21T12:46:48;6.88;;;3.22;;
55913;SDS011;58179;48.776;9.124;2022-08-21T12:49:23;6.63;;;2.95;;
55913;SDS011;58179;48.776;9.124;2022-08-21T12:51:56;5.85;;;3.08;;
55913;SDS011;58179;48.776;9.124;2022-08-21T12:54:31;8.93;;;3.30;;
55913;SDS011;58179;48.776;9.124;2022-08-21T12:57:06;6.43;;;3.05;;
55913;SDS011;58179;48.776;9.124;2022-08-21T12:59:36;8.45;;;3.45;;
55913;SDS011;58179;48.776;9.124;2022-08-21T13:02:03;7.53;;;3.08;;
55913;SDS011;58179;48.776;9.124;2022-08-21T13:04:40;7.13;;;3.22;;
55913;SDS011;58179;48.776;9.124;2022-08-21T13:07:08;6.63;;;2.93;;
55913;SDS011;58179;48.776;9.124;2022-08-21T13:09:39;7.85;;;3.15;;
55913;SDS011;58179;48.776;9.124;2022-08-21T13:12:12;5.85;;;3.00;;
55913;SDS011;58179;48.776;9.124;2022-08-21T13:14:42;7.57;;;3.22;;
55913;SDS011;58179;48.776;9.124;2022-08-21T13:17:14;5.72;;;2.85;;
55913;SDS011;58179;48.776;9.124;2022-08-21T13:19:42;9.27;;;3.35;;
55913;SDS011;58179;48.776;9.124;2022-08-21T13:22:19;9.23;;;3.15;;
55913;SDS011;58179;48.776;9.124;2022-08-21T13:24:46;12.63;;;3.63;;
55913;SDS011;58179;48.776;9.124;2022-08-21T13:27:19;7.40;;;3.55;;
55913;SDS011;58179;48.776;9.124;2022-08-21T13:29:59;9.73;;;3.42;;
55913;SDS011;58179;48.776;9.124;2022-08-21T13:32:30;9.50;;;3.35;;
55913;SDS011;58179;48.776;9.124;2022-08-21T13:34:59;5.80;;;2.95;;
55913;SDS011;58179;48.776;9.124;2022-08-21T13:37:39;8.32;;;3.55;;
55913;SDS011;58179;48.776;9.124;2022-08-21T13:40:07;8.73;;;3.20;;
55913;SDS011;58179;48.776;9.124;2022-08-21T13:42:39;10.48;;;3.70;;
55913;SDS011;58179;48.776;9.124;2022-08-21T13:45:11;6.78;;;3.08;;
55913;SDS011;58179;48.776;9.124;2022-08-21T13:47:41;7.07;;;3.37;;
55913;SDS011;58179;48.776;9.124;2022-08-21T13:50:08;8.93;;;2.97;;
55913;SDS011;58179;48.776;9.124;2022-08-21T13:52:44;8.10;;;3.55;;
55913;SDS011;58179;48.776;9.124;2022-08-21T13:55:16;5.82;;;3.13;;
55913;SDS011;58179;48.776;9.124;2022-08-21T13:57:44;8.90;;;3.43;;
55913;SDS011;58179;48.776;9.124;2022-08-21T14:00:11;7.97;;;3.10;;
55913;SDS011;58179;48.776;9.124;2022-08-21T14:02:41;6.90;;;3.42;;
55913;SDS011;58179;48.776;9.124;2022-08-21T14:05:14;6.90;;;3.42;;
55913;SDS011;58179;48.776;9.124;2022-08-21T14:07:45;7.72;;;2.97;;
55913;SDS011;58179;48.776;9.124;2022-08-21T14:10:13;5.17;;;2.70;;
55913;SDS011;58179;48.776;9.124;2022-08-21T14:12:46;5.43;;;3.00;;
55913;SDS011;58179;48.776;9.124;2022-08-21T14:15:17;6.63;;;3.17;;
55913;SDS011;58179;48.776;9.124;2022-08-21T14:17:48;5.05;;;2.60;;
55913;SDS011;58179;48.776;9.124;2022-08-21T14:20:26;6.95;;;2.80;;
55913;SDS011;58179;48.776;9.124;2022-08-21T14:22:56;6.05;;;2.83;;
55913;SDS011;58179;48.776;9.124;2022-08-21T14:25:29;5.68;;;2.95;;
55913;SDS011;58179;48.776;9.124;2022-08-21T14:28:04;7.03;;;3.17;;
55913;SDS011;58179;48.776;9.124;2022-08-21T14:30:41;6.23;;;2.67;;
55913;SDS011;58179;48.776;9.124;2022-08-21T14:33:10;6.03;;;2.90;;
55913;SDS011;58179;48.776;9.124;2022-08-21T14:35:43;5.32;;;2.70;;
55913;SDS011;58179;48.776;9.124;2022-08-21T14:38:13;8.70;;;2.97;;
55913;SDS011;58179;48.776;9.124;2022-08-21T14:40:41;6.87;;;3.10;;
55913;SDS011;58179;48.776;9.124;2022-08-21T14:43:10;10.95;;;3.55;;
55913;SDS011;58179;48.776;9.124;2022-08-21T14:45:36;8.43;;;2.50;;
55913;SDS011;58179;48.776;9.124;2022-08-21T14:48:05;6.57;;;3.55;;
55913;SDS011;58179;48.776;9.124;2022-08-21T14:50:32;4.83;;;2.70;;
55913;SDS011;58179;48.776;9.124;2022-08-21T14:52:58;6.93;;;2.80;;
55913;SDS011;58179;48.776;9.124;2022-08-21T14:55:24;9.52;;;3.38;;
55913;SDS011;58179;48.776;9.124;2022-08-21T14:57:52;4.18;;;2.55;;
55913;SDS011;58179;48.776;9.124;2022-08-21T15:00:21;6.03;;;2.72;;
55913;SDS011;58179;48.776;9.124;2022-08-21T15:02:50;5.90;;;2.97;;
55913;SDS011;58179;48.776;9.124;2022-08-21T15:05:17;6.97;;;2.88;;